Time;durP1;ratioP1;P1;durP2;ratioP2;P2;SDS_P1;SDS_P2;PMS_P1;PMS_P2;Temp;Humidity;BMP_temperature;BMP_pressure;BME280_temperature;BME280_humidity;BME280_pressure;Samples;Min_cycle;Max_cycle;Signal;HPM_P1;HPM_P2
2021/09/11 00:00:00;;;;;;;14.60;11.77;;;;;;;19.96;73.96;100929.72;687898;28;21533;-68
2021/09/11 00:00:21;;;;;;;14.80;12.23;;;;;;;19.97;74.15;100934.16;687739;28;46403;-68
2021/09/11 00:00:42;;;;;;;15.05;11.95;;;;;;;19.97;73.92;100933.34;688614;28;21524;-68
2021/09/11 00:01:03;;;;;;;14.98;11.23;;;;;;;19.92;73.80;100919.47;689157;28;22394;-68
2021/09/11 00:01:25;;;;;;;15.55;10.77;;;;;;;19.96;73.96;100927.00;688682;28;23471;-68
2021/09/11 00:01:46;;;;;;;14.90;11.52;;;;;;;19.96;73.88;100929.72;687537;28;44411;-68
2021/09/11 00:02:09;;;;;;;15.40;11.73;;;;;;;19.95;74.06;100932.72;687465;28;23455;-68
2021/09/11 00:02:31;;;;;;;15.02;11.35;;;;;;;19.96;73.95;100932.47;687931;28;69489;-68
2021/09/11 00:02:52;;;;;;;13.80;10.93;;;;;;;19.95;73.80;100930.81;688568;28;45283;-67
2021/09/11 00:03:13;;;;;;;13.82;11.35;;;;;;;19.96;74.17;100931.66;688935;28;23750;-67
2021/09/11 00:03:34;;;;;;;13.80;11.32;;;;;;;19.95;74.17;100924.50;689452;28;22389;-68
2021/09/11 00:03:56;;;;;;;13.50;11.10;;;;;;;19.89;74.02;100922.69;689336;28;22407;-68
2021/09/11 00:04:17;;;;;;;13.38;11.05;;;;;;;19.95;74.16;100935.44;688854;28;42717;-68
2021/09/11 00:04:45;;;;;;;12.38;10.88;;;;;;;19.93;74.03;100921.97;691089;28;22156;-67
2021/09/11 00:05:07;;;;;;;12.23;10.75;;;;;;;19.95;73.99;100929.97;686668;28;138114;-67
2021/09/11 00:05:29;;;;;;;13.77;10.98;;;;;;;19.93;73.98;100927.47;690370;28;43717;-67
2021/09/11 00:05:50;;;;;;;13.82;10.70;;;;;;;19.94;74.27;100925.56;688804;28;45304;-68
2021/09/11 00:06:11;;;;;;;18.33;12.77;;;;;;;19.92;74.15;100919.47;688186;28;23466;-67
2021/09/11 00:06:32;;;;;;;16.42;13.48;;;;;;;19.93;74.00;100926.63;687369;28;21488;-67
2021/09/11 00:06:55;;;;;;;19.55;14.10;;;;;;;19.93;74.17;100923.91;689392;28;21566;-67
2021/09/11 00:07:16;;;;;;;21.42;13.38;;;;;;;19.93;74.17;100923.91;685710;28;90359;-68
2021/09/11 00:07:38;;;;;;;21.40;13.10;;;;;;;19.93;74.13;100918.41;688109;28;22363;-67
2021/09/11 00:08:00;;;;;;;18.95;13.40;;;;;;;19.95;74.21;100929.97;688682;28;1062;-68
2021/09/11 00:08:21;;;;;;;19.55;13.02;;;;;;;19.93;74.30;100923.91;687128;28;46326;-68
2021/09/11 00:08:42;;;;;;;18.00;12.73;;;;;;;19.94;74.26;100922.84;688418;28;21531;-68
2021/09/11 00:09:03;;;;;;;16.08;11.80;;;;;;;19.96;74.21;100928.91;688332;28;22399;-67
2021/09/11 00:09:24;;;;;;;14.68;11.50;;;;;;;19.94;74.19;100926.41;688599;28;22374;-68
2021/09/11 00:09:46;;;;;;;15.40;11.80;;;;;;;19.93;74.08;100921.97;688687;28;22418;-68
2021/09/11 00:10:09;;;;;;;17.30;12.63;;;;;;;19.94;74.21;100923.66;687565;28;45287;-68
2021/09/11 00:10:31;;;;;;;16.75;12.80;;;;;;;19.95;74.17;100922.59;686970;28;69792;-67
2021/09/11 00:10:52;;;;;;;18.05;13.07;;;;;;;19.95;74.21;100922.59;688059;28;45311;-68
2021/09/11 00:11:14;;;;;;;18.52;12.68;;;;;;;19.95;74.27;100927.22;689830;28;1331;-67
2021/09/11 00:11:35;;;;;;;14.75;11.02;;;;;;;19.95;74.37;100925.34;686290;28;47712;-67
2021/09/11 00:11:56;;;;;;;13.27;11.57;;;;;;;19.93;74.21;100921.97;688664;28;22408;-68
2021/09/11 00:12:18;;;;;;;14.88;11.40;;;;;;;19.96;74.07;100926.16;688369;28;22365;-68
2021/09/11 00:12:40;;;;;;;17.00;12.00;;;;;;;19.95;74.13;100921.75;687777;28;45264;-68
2021/09/11 00:13:01;;;;;;;14.60;11.35;;;;;;;19.96;74.09;100920.69;689045;28;23463;-68
2021/09/11 00:13:22;;;;;;;15.20;10.87;;;;;;;19.95;73.98;100921.75;687310;28;46290;-67
2021/09/11 00:13:44;;;;;;;15.30;11.43;;;;;;;19.96;74.05;100920.69;687698;28;47037;-68
2021/09/11 00:14:05;;;;;;;14.05;11.13;;;;;;;19.96;74.17;100923.44;687759;28;44382;-68
2021/09/11 00:14:26;;;;;;;12.77;10.80;;;;;;;19.96;74.12;100927.00;687125;28;22366;-67
2021/09/11 00:14:47;;;;;;;14.32;11.10;;;;;;;19.97;74.05;100927.84;687000;28;23475;-67
2021/09/11 00:15:15;;;;;;;13.30;11.25;;;;;;;19.97;74.06;100927.84;688301;28;46385;-67
2021/09/11 00:15:37;;;;;;;12.38;10.90;;;;;;;19.97;73.96;100934.16;684481;28;138047;-68
2021/09/11 00:15:58;;;;;;;15.77;11.02;;;;;;;19.98;73.99;100926.75;688423;28;22235;-67
2021/09/11 00:16:19;;;;;;;18.15;11.63;;;;;;;19.97;74.01;100928.69;688549;28;21398;-68
2021/09/11 00:16:41;;;;;;;13.63;11.15;;;;;;;19.97;73.72;100925.09;688035;28;22403;-68
2021/09/11 00:17:03;;;;;;;13.43;11.05;;;;;;;19.97;73.95;100923.19;685556;28;69471;-67
2021/09/11 00:17:24;;;;;;;12.20;10.47;;;;;;;19.97;73.91;100925.09;686321;28;46351;-68
2021/09/11 00:17:47;;;;;;;13.93;10.55;;;;;;;19.96;73.80;100924.25;685810;28;44365;-68
2021/09/11 00:18:09;;;;;;;15.77;10.95;;;;;;;19.97;73.85;100922.38;686454;28;69383;-67
2021/09/11 00:18:30;;;;;;;16.70;11.85;;;;;;;19.98;73.72;100929.50;687425;28;46294;-68
2021/09/11 00:18:51;;;;;;;16.75;12.27;;;;;;;19.97;73.83;100925.09;688813;28;21608;-68
2021/09/11 00:19:12;;;;;;;15.37;11.80;;;;;;;19.97;73.70;100927.84;687793;28;44383;-67
2021/09/11 00:19:34;;;;;;;14.47;11.87;;;;;;;19.96;73.57;100927.00;687682;28;45248;-69
2021/09/11 00:19:55;;;;;;;14.45;11.82;;;;;;;19.96;73.73;100921.50;688918;28;69420;-68
2021/09/11 00:20:16;;;;;;;13.48;11.50;;;;;;;19.97;73.73;100927.84;690754;28;21539;-68
2021/09/11 00:20:38;;;;;;;12.40;11.10;;;;;;;19.96;73.74;100929.72;690887;28;22400;-68
2021/09/11 00:21:00;;;;;;;12.32;10.73;;;;;;;19.96;73.83;100932.47;691298;28;21691;-68
2021/09/11 00:21:21;;;;;;;14.68;10.93;;;;;;;19.96;73.60;100921.50;690086;28;46488;-68
2021/09/11 00:21:42;;;;;;;14.20;11.02;;;;;;;19.96;73.62;100924.25;690184;28;21526;-68
2021/09/11 00:22:04;;;;;;;13.88;10.93;;;;;;;19.95;73.57;100927.22;688458;28;22349;-68
2021/09/11 00:22:27;;;;;;;14.05;10.93;;;;;;;19.97;73.56;100930.59;687432;28;45002;-68
2021/09/11 00:22:48;;;;;;;12.38;11.00;;;;;;;19.95;73.66;100933.56;685634;28;69480;-69
2021/09/11 00:23:10;;;;;;;14.18;11.50;;;;;;;19.95;73.70;100924.50;687149;28;22394;-67
2021/09/11 00:23:31;;;;;;;15.60;11.52;;;;;;;19.92;73.70;100924.97;687718;28;44344;-68
2021/09/11 00:23:53;;;;;;;13.93;11.02;;;;;;;19.92;73.59;100927.69;688807;28;21782;-67
2021/09/11 00:24:14;;;;;;;14.98;11.45;;;;;;;19.93;73.79;100923.91;687732;28;45334;-68
2021/09/11 00:24:35;;;;;;;13.98;11.13;;;;;;;19.91;73.82;100921.38;688221;28;23487;-68
2021/09/11 00:24:56;;;;;;;15.23;11.55;;;;;;;19.90;74.01;100924.38;688148;28;22415;-68
2021/09/11 00:25:19;;;;;;;15.73;11.85;;;;;;;19.89;74.02;100923.53;690836;28;21567;-68
2021/09/11 00:25:40;;;;;;;14.13;11.60;;;;;;;19.87;73.79;100924.84;690379;28;46225;-68
2021/09/11 00:26:02;;;;;;;13.02;11.45;;;;;;;19.88;74.06;100935.56;690185;28;46282;-69
2021/09/11 00:26:23;;;;;;;14.00;11.30;;;;;;;19.85;73.81;100919.59;690893;28;21548;-68
2021/09/11 00:26:45;;;;;;;13.50;11.45;;;;;;;19.86;73.85;100926.75;690584;28;22510;-68
2021/09/11 00:27:06;;;;;;;14.38;11.65;;;;;;;19.83;74.07;100918.13;689779;28;67559;-68
2021/09/11 00:27:27;;;;;;;12.45;11.15;;;;;;;19.85;74.12;100925.06;690453;28;22428;-68
2021/09/11 00:27:48;;;;;;;14.37;11.23;;;;;;;19.85;74.06;100924.25;689731;28;46309;-68
2021/09/11 00:28:10;;;;;;;14.38;11.30;;;;;;;19.85;74.24;100929.72;687845;28;18983;-68
2021/09/11 00:28:31;;;;;;;13.93;11.23;;;;;;;19.84;74.17;100922.56;684618;28;46346;-68
2021/09/11 00:28:52;;;;;;;14.95;11.05;;;;;;;19.82;74.25;100925.53;685704;28;21515;-68
2021/09/11 00:29:13;;;;;;;16.58;11.63;;;;;;;19.80;74.17;100928.50;685224;28;22413;-68
2021/09/11 00:29:37;;;;;;;16.10;12.02;;;;;;;19.79;74.25;100931.47;683081;28;21512;-68
2021/09/11 00:29:58;;;;;;;12.93;11.50;;;;;;;19.78;74.38;100924.31;685240;28;1551;-68
2021/09/11 00:30:19;;;;;;;13.73;11.55;;;;;;;19.78;74.28;100924.31;688072;28;23492;-68
2021/09/11 00:30:40;;;;;;;12.75;11.40;;;;;;;19.77;74.34;100926.22;688486;28;23648;-68
2021/09/11 00:31:04;;;;;;;13.98;11.13;;;;;;;19.77;74.31;100922.66;688769;28;22395;-68
2021/09/11 00:31:26;;;;;;;12.80;11.07;;;;;;;19.75;74.50;100924.78;686209;28;90758;-67
2021/09/11 00:31:47;;;;;;;14.15;11.32;;;;;;;19.76;74.31;100921.81;687534;28;44386;-68
2021/09/11 00:32:08;;;;;;;13.38;10.80;;;;;;;19.76;74.38;100927.28;688424;28;22424;-68
2021/09/11 00:32:29;;;;;;;11.93;10.73;;;;;;;19.75;74.32;100922.03;687604;28;44394;-68
2021/09/11 00:32:51;;;;;;;11.93;10.73;;;;;;;19.75;74.37;100924.78;690646;28;21476;-68
2021/09/11 00:33:12;;;;;;;11.52;10.32;;;;;;;19.74;74.11;100923.94;690064;28;46436;-67
2021/09/11 00:33:33;;;;;;;12.07;10.80;;;;;;;19.74;74.09;100923.09;690648;28;23456;-68
2021/09/11 00:33:56;;;;;;;11.82;10.52;;;;;;;19.74;74.07;100921.19;690850;28;22415;-68
2021/09/11 00:34:17;;;;;;;11.25;10.15;;;;;;;19.74;74.09;100923.94;686853;28;45285;-68
2021/09/11 00:34:38;;;;;;;13.43;10.38;;;;;;;19.73;74.00;100919.53;686851;28;22197;-67
2021/09/11 00:34:59;;;;;;;12.85;10.40;;;;;;;19.70;74.08;100913.66;686920;28;23395;-67
2021/09/11 00:35:22;;;;;;;13.70;9.82;;;;;;;19.75;73.97;100925.59;687909;28;22383;-68
2021/09/11 00:35:43;;;;;;;13.23;10.23;;;;;;;19.75;74.12;100922.88;686695;28;68461;-68
2021/09/11 00:36:04;;;;;;;14.55;10.38;;;;;;;19.72;73.76;100926.06;688069;28;22405;-68
2021/09/11 00:36:25;;;;;;;13.27;10.98;;;;;;;19.77;74.03;100925.41;688481;28;22395;-68
2021/09/11 00:36:48;;;;;;;13.60;11.25;;;;;;;19.77;73.86;100923.50;688410;28;23466;-68
2021/09/11 00:37:10;;;;;;;11.50;10.30;;;;;;;19.77;73.89;100926.22;686786;28;67547;-68
2021/09/11 00:37:31;;;;;;;12.18;10.48;;;;;;;19.74;74.03;100920.38;688103;28;45320;-68
2021/09/11 00:37:52;;;;;;;13.18;10.55;;;;;;;19.77;74.04;100923.50;687736;28;20888;-68
2021/09/11 00:38:14;;;;;;;12.95;10.55;;;;;;;19.78;73.89;100924.31;687803;28;22228;-68
2021/09/11 00:38:35;;;;;;;13.48;10.50;;;;;;;19.80;73.98;100927.69;686265;28;46413;-68
2021/09/11 00:38:57;;;;;;;15.48;10.60;;;;;;;19.79;73.84;100926.00;688828;28;21543;-67
2021/09/11 00:39:19;;;;;;;13.68;10.70;;;;;;;19.77;73.58;100923.50;688137;28;22305;-68
2021/09/11 00:39:40;;;;;;;11.98;10.75;;;;;;;19.78;73.86;100924.31;687538;28;45257;-68
2021/09/11 00:40:01;;;;;;;12.35;10.88;;;;;;;19.78;73.67;100924.31;687970;28;21534;-67
2021/09/11 00:40:22;;;;;;;13.90;11.18;;;;;;;19.79;73.79;100928.75;688256;28;21580;-68
2021/09/11 00:40:44;;;;;;;14.70;12.00;;;;;;;19.79;73.97;100929.56;687921;28;46151;-68
2021/09/11 00:41:05;;;;;;;13.40;11.20;;;;;;;19.80;73.92;100925.75;686993;28;46344;-68
2021/09/11 00:41:26;;;;;;;13.43;11.00;;;;;;;19.79;73.75;100932.31;687855;28;23877;-68
2021/09/11 00:41:47;;;;;;;15.25;11.55;;;;;;;19.80;73.92;100927.69;688166;28;22405;-68
2021/09/11 00:42:09;;;;;;;12.98;11.00;;;;;;;19.76;74.05;100921.81;688573;28;21605;-68
2021/09/11 00:42:31;;;;;;;14.48;10.77;;;;;;;19.80;73.95;100934.00;686405;28;45309;-68
2021/09/11 00:42:52;;;;;;;13.52;10.98;;;;;;;19.81;73.99;100932.06;687249;28;22114;-68
2021/09/11 00:43:19;;;;;;;13.32;10.73;;;;;;;19.81;73.92;100929.34;687097;28;23477;-66
2021/09/11 00:43:45;;;;;;;12.98;11.23;;;;;;;19.79;73.92;100929.56;684261;28;136922;-68
2021/09/11 00:44:06;;;;;;;15.48;11.95;;;;;;;19.83;73.90;100926.34;685157;28;115068;-68
2021/09/11 00:44:27;;;;;;;14.65;11.35;;;;;;;19.83;73.99;100937.31;688390;28;23431;-69
2021/09/11 00:44:49;;;;;;;12.82;11.10;;;;;;;19.82;74.04;100922.78;688705;28;22412;-67
2021/09/11 00:45:11;;;;;;;13.43;11.13;;;;;;;19.83;73.93;100929.09;687663;28;46449;-68
2021/09/11 00:45:32;;;;;;;14.35;11.00;;;;;;;19.81;73.86;100934.81;687272;28;46453;-67
2021/09/11 00:45:53;;;;;;;13.98;11.45;;;;;;;19.83;73.90;100929.09;688610;28;22409;-67
2021/09/11 00:46:16;;;;;;;13.13;10.73;;;;;;;19.82;73.69;100932.94;688297;28;23486;-67
2021/09/11 00:46:37;;;;;;;11.90;10.65;;;;;;;19.79;73.72;100926.00;687169;28;67306;-68
2021/09/11 00:46:58;;;;;;;13.15;10.90;;;;;;;19.80;73.68;100930.41;687796;28;22398;-68
2021/09/11 00:47:20;;;;;;;12.63;10.70;;;;;;;19.80;73.64;100934.00;688499;28;22202;-67
2021/09/11 00:47:42;;;;;;;13.80;10.40;;;;;;;19.78;73.58;100922.44;685713;28;46418;-67
2021/09/11 00:48:03;;;;;;;12.80;10.25;;;;;;;19.78;73.58;100933.41;687178;28;45134;-68
2021/09/11 00:48:24;;;;;;;13.40;10.30;;;;;;;19.75;73.49;100927.53;687036;28;21390;-68
2021/09/11 00:48:45;;;;;;;12.43;10.18;;;;;;;19.73;73.55;100929.63;688241;28;22401;-68
2021/09/11 00:49:07;;;;;;;13.77;10.48;;;;;;;19.74;73.38;100932.16;688499;28;22398;-67
2021/09/11 00:49:28;;;;;;;14.30;10.60;;;;;;;19.72;73.34;100931.56;687496;28;44407;-68
2021/09/11 00:49:49;;;;;;;13.38;10.77;;;;;;;19.73;73.46;100937.88;688556;28;22405;-67
2021/09/11 00:50:11;;;;;;;12.43;10.77;;;;;;;19.72;73.45;100939.78;690405;28;23571;-67
2021/09/11 00:50:33;;;;;;;12.32;10.38;;;;;;;19.70;73.51;100930.09;689144;28;1097;-68
2021/09/11 00:50:54;;;;;;;12.93;10.98;;;;;;;19.71;73.54;100934.53;688274;28;45243;-67
2021/09/11 00:51:15;;;;;;;13.27;11.02;;;;;;;19.71;73.62;100929.88;688611;28;22406;-67
2021/09/11 00:51:37;;;;;;;14.15;11.52;;;;;;;19.71;74.01;100931.78;688698;28;23291;-68
2021/09/11 00:51:59;;;;;;;12.32;10.82;;;;;;;19.69;73.66;100937.50;686249;28;23457;-67
2021/09/11 00:52:21;;;;;;;12.70;10.85;;;;;;;19.70;73.60;100925.47;686378;28;45298;-67
2021/09/11 00:52:45;;;;;;;14.60;11.73;;;;;;;19.72;73.70;100928.81;687703;28;69122;-68
2021/09/11 00:53:06;;;;;;;13.40;11.50;;;;;;;19.73;73.74;100929.63;687763;28;68348;-67
2021/09/11 00:53:31;;;;;;;13.15;11.68;;;;;;;19.73;73.74;100927.75;689570;28;13471;-68
2021/09/11 00:53:52;;;;;;;14.88;11.75;;;;;;;19.75;73.52;100933.00;687052;28;69445;-67
2021/09/11 00:54:13;;;;;;;16.40;11.85;;;;;;;19.75;73.78;100933.84;688240;28;22392;-68
2021/09/11 00:54:34;;;;;;;18.25;11.90;;;;;;;19.76;73.51;100935.50;688544;28;22424;-68
2021/09/11 00:54:56;;;;;;;16.67;12.25;;;;;;;19.74;73.71;100931.31;688181;28;24407;-68
2021/09/11 00:55:18;;;;;;;14.70;11.93;;;;;;;19.76;73.66;100935.50;686812;28;44460;-67
2021/09/11 00:55:39;;;;;;;13.32;11.55;;;;;;;19.74;73.71;100928.59;687143;28;22285;-67
2021/09/11 00:56:02;;;;;;;13.07;11.68;;;;;;;19.74;73.51;100932.16;687119;28;46396;-68
2021/09/11 00:56:23;;;;;;;14.00;12.00;;;;;;;19.74;73.55;100928.59;687398;28;45047;-68
2021/09/11 00:56:44;;;;;;;15.43;11.93;;;;;;;19.73;73.58;100935.97;688309;28;22427;-68
2021/09/11 00:57:06;;;;;;;14.85;12.05;;;;;;;19.75;73.75;100935.75;688241;28;22405;-68
2021/09/11 00:57:29;;;;;;;13.02;11.63;;;;;;;19.75;73.60;100930.25;687802;28;13688;-67
2021/09/11 00:57:50;;;;;;;13.73;11.63;;;;;;;19.73;73.58;100937.88;687762;28;22442;-67
2021/09/11 00:58:12;;;;;;;15.40;11.80;;;;;;;19.70;73.71;100933.69;688149;28;23473;-69
2021/09/11 00:58:34;;;;;;;15.48;11.77;;;;;;;19.71;73.67;100934.53;686727;28;46575;-67
2021/09/11 00:58:55;;;;;;;13.77;11.68;;;;;;;19.68;73.68;100935.81;687336;28;44259;-67
2021/09/11 00:59:16;;;;;;;13.68;11.75;;;;;;;19.67;73.62;100942.38;688254;28;22447;-67
2021/09/11 00:59:38;;;;;;;14.13;11.50;;;;;;;19.63;73.77;100927.47;688578;28;22416;-68
2021/09/11 00:59:59;;;;;;;12.60;11.30;;;;;;;19.63;73.87;100928.28;687709;28;44391;-68
2021/09/11 01:00:20;;;;;;;14.45;12.00;;;;;;;19.57;73.86;100929.22;688077;28;22397;-67
2021/09/11 01:00:42;;;;;;;15.45;12.13;;;;;;;19.60;73.88;100927.94;690056;28;23453;-67
2021/09/11 01:01:03;;;;;;;15.02;12.27;;;;;;;19.58;74.08;100933.66;688269;28;46342;-68
2021/09/11 01:01:24;;;;;;;14.68;11.93;;;;;;;19.58;74.11;100938.31;688446;28;22420;-67
2021/09/11 01:01:45;;;;;;;14.50;12.00;;;;;;;19.56;74.04;100935.78;688169;28;22499;-67
2021/09/11 01:02:08;;;;;;;17.90;12.30;;;;;;;19.56;74.25;100937.69;687439;28;42449;-67
2021/09/11 01:02:29;;;;;;;15.63;12.20;;;;;;;19.56;74.29;100934.94;686630;28;69467;-68
2021/09/11 01:02:50;;;;;;;15.02;11.73;;;;;;;19.54;74.18;100937.91;688122;28;22411;-68
2021/09/11 01:03:11;;;;;;;12.98;11.43;;;;;;;19.53;74.12;100938.13;688315;28;21600;-68
2021/09/11 01:03:32;;;;;;;15.95;11.85;;;;;;;19.51;74.18;100930.16;688368;28;22363;-67
2021/09/11 01:03:55;;;;;;;14.93;11.43;;;;;;;19.48;74.24;100927.88;690084;28;22422;-67
2021/09/11 01:04:16;;;;;;;15.20;11.82;;;;;;;19.49;74.26;100937.78;686045;28;45377;-68
2021/09/11 01:04:37;;;;;;;15.75;11.60;;;;;;;19.48;74.29;100940.75;686258;28;45222;-68
2021/09/11 01:04:58;;;;;;;13.32;11.60;;;;;;;19.45;74.18;100936.56;687179;28;23457;-67
2021/09/11 01:05:20;;;;;;;12.48;11.18;;;;;;;19.43;74.50;100941.44;687632;28;22174;-67
2021/09/11 01:05:42;;;;;;;13.07;11.60;;;;;;;19.41;74.39;100941.66;688638;28;46343;-68
2021/09/11 01:06:04;;;;;;;13.73;11.63;;;;;;;19.41;74.49;100933.44;687398;28;44390;-68
2021/09/11 01:06:26;;;;;;;14.50;10.82;;;;;;;19.41;74.46;100947.16;688981;28;1236;-67
2021/09/11 01:06:48;;;;;;;14.48;11.00;;;;;;;19.39;74.65;100938.34;686773;28;67519;-67
2021/09/11 01:07:09;;;;;;;13.70;11.75;;;;;;;19.42;74.62;100948.00;687392;28;23423;-68
2021/09/11 01:07:32;;;;;;;13.55;12.00;;;;;;;19.39;74.62;100938.34;687710;28;45257;-67
2021/09/11 01:07:54;;;;;;;17.33;12.02;;;;;;;19.39;74.72;100942.97;687118;28;46347;-67
2021/09/11 01:08:15;;;;;;;13.18;11.60;;;;;;;19.38;74.86;100944.88;687500;28;46258;-67
2021/09/11 01:08:38;;;;;;;12.80;11.48;;;;;;;19.37;74.85;100943.22;688480;28;21568;-66
2021/09/11 01:08:59;;;;;;;13.90;11.55;;;;;;;19.38;74.86;100949.53;686922;28;69561;-67
2021/09/11 01:09:21;;;;;;;13.38;11.38;;;;;;;19.37;74.94;100943.22;688893;28;3281;-67
2021/09/11 01:09:42;;;;;;;15.32;12.00;;;;;;;19.36;75.22;100947.00;687599;28;45208;-67
2021/09/11 01:10:04;;;;;;;16.55;12.43;;;;;;;19.35;74.79;100941.75;688887;28;19484;-67
2021/09/11 01:10:26;;;;;;;16.23;12.13;;;;;;;19.35;75.00;100944.50;687750;28;62050;-68
2021/09/11 01:10:47;;;;;;;16.77;11.77;;;;;;;19.32;75.01;100943.03;689586;28;22398;-67
2021/09/11 01:11:10;;;;;;;13.68;11.73;;;;;;;19.32;75.06;100948.53;689612;28;22416;-68
2021/09/11 01:11:32;;;;;;;16.33;12.15;;;;;;;19.32;75.04;100944.97;687349;28;69420;-67
2021/09/11 01:11:53;;;;;;;16.40;12.73;;;;;;;19.29;74.96;100940.78;688371;28;47639;-68
2021/09/11 01:12:14;;;;;;;13.82;11.95;;;;;;;19.30;75.03;100944.38;687785;28;21508;-68
2021/09/11 01:12:37;;;;;;;13.63;11.65;;;;;;;19.27;75.03;100938.25;689231;28;1000;-67
2021/09/11 01:12:59;;;;;;;16.05;11.98;;;;;;;19.27;75.10;100941.00;686920;28;67543;-67
2021/09/11 01:13:20;;;;;;;14.25;11.70;;;;;;;19.26;75.03;100949.44;687443;28;46340;-67
2021/09/11 01:13:42;;;;;;;15.63;11.90;;;;;;;19.25;75.10;100956.00;688581;28;22415;-68
2021/09/11 01:14:03;;;;;;;17.63;12.23;;;;;;;19.23;75.14;100950.75;686209;28;46220;-68
2021/09/11 01:14:27;;;;;;;17.15;12.30;;;;;;;19.22;75.36;100951.81;687352;28;14614;-67
2021/09/11 01:14:48;;;;;;;15.15;11.98;;;;;;;19.21;75.29;100947.41;687056;28;23391;-67
2021/09/11 01:15:12;;;;;;;14.55;12.25;;;;;;;19.23;75.34;100949.91;687154;28;21549;-68
2021/09/11 01:15:34;;;;;;;14.25;11.80;;;;;;;19.21;75.45;100946.56;685682;28;92146;-68
2021/09/11 01:15:56;;;;;;;17.98;11.50;;;;;;;19.22;75.35;100949.06;687864;28;46382;-68
2021/09/11 01:16:17;;;;;;;15.00;11.63;;;;;;;19.20;75.55;100945.75;687263;28;42297;-67
2021/09/11 01:16:39;;;;;;;14.43;11.85;;;;;;;19.22;75.68;100943.59;688045;28;23451;-68
2021/09/11 01:17:01;;;;;;;14.15;12.38;;;;;;;19.23;75.62;100947.16;687091;28;46332;-68
2021/09/11 01:17:22;;;;;;;14.48;12.65;;;;;;;19.21;75.70;100939.19;686369;28;23555;-69
2021/09/11 01:17:43;;;;;;;13.80;12.40;;;;;;;19.22;75.74;100945.50;686421;28;22452;-68
2021/09/11 01:18:05;;;;;;;14.05;12.55;;;;;;;19.22;75.73;100945.50;686596;28;46343;-68
2021/09/11 01:18:29;;;;;;;14.43;12.65;;;;;;;19.22;75.73;100942.78;689107;28;38141;-69
2021/09/11 01:18:50;;;;;;;14.98;12.70;;;;;;;19.17;75.62;100942.59;689424;28;20875;-68
2021/09/11 01:19:11;;;;;;;13.70;12.02;;;;;;;19.21;75.90;100939.19;689249;28;22402;-68
2021/09/11 01:19:33;;;;;;;16.35;12.10;;;;;;;19.21;75.98;100941.91;688784;28;20882;-69
2021/09/11 01:19:54;;;;;;;14.23;12.48;;;;;;;19.23;75.99;100947.16;687938;28;46322;-68
2021/09/11 01:20:15;;;;;;;15.02;12.60;;;;;;;19.24;75.95;100948.84;688292;28;22402;-68
2021/09/11 01:20:38;;;;;;;13.98;12.38;;;;;;;19.20;75.95;100937.53;688775;28;25664;-68
2021/09/11 01:21:00;;;;;;;15.65;12.80;;;;;;;19.22;75.93;100943.59;687527;28;46239;-69
2021/09/11 01:21:21;;;;;;;17.05;12.73;;;;;;;19.23;75.78;100938.94;685399;28;69535;-69
2021/09/11 01:21:42;;;;;;;15.55;12.73;;;;;;;19.22;75.82;100942.78;688019;28;22401;-68
2021/09/11 01:22:04;;;;;;;13.93;12.40;;;;;;;19.21;75.74;100938.34;688416;28;22554;-69
2021/09/11 01:22:26;;;;;;;14.70;12.75;;;;;;;19.18;75.63;100944.28;687061;28;22426;-68
2021/09/11 01:22:48;;;;;;;14.75;12.93;;;;;;;19.21;75.75;100944.66;686350;28;44078;-67
2021/09/11 01:23:09;;;;;;;15.82;12.93;;;;;;;19.20;75.76;100947.63;687463;28;46355;-69
2021/09/11 01:23:31;;;;;;;15.73;12.63;;;;;;;19.20;75.72;100944.88;688336;28;21277;-68
2021/09/11 01:23:54;;;;;;;15.80;12.57;;;;;;;19.19;75.69;100940.50;687315;28;46183;-68
2021/09/11 01:24:15;;;;;;;15.80;13.07;;;;;;;19.20;75.92;100951.22;686598;28;69470;-69
2021/09/11 01:24:37;;;;;;;14.68;13.05;;;;;;;19.19;75.98;100949.53;688356;28;23508;-68
2021/09/11 01:25:02;;;;;;;14.85;12.88;;;;;;;19.22;76.07;100942.78;685897;28;92568;-68
2021/09/11 01:25:27;;;;;;;15.07;13.02;;;;;;;19.20;75.96;100936.66;689075;28;63169;-68
2021/09/11 01:25:48;;;;;;;15.48;12.50;;;;;;;19.21;75.82;100936.44;689977;28;47292;-69
2021/09/11 01:26:13;;;;;;;13.85;12.38;;;;;;;19.23;75.90;100944.44;690800;28;22464;-68
2021/09/11 01:26:34;;;;;;;14.43;12.82;;;;;;;19.22;76.00;100943.59;687588;28;115990;-67
2021/09/11 01:26:56;;;;;;;15.57;12.65;;;;;;;19.22;75.86;100943.59;691053;28;21321;-68
2021/09/11 01:27:17;;;;;;;15.32;12.15;;;;;;;19.24;76.04;100948.84;689231;28;46248;-68
2021/09/11 01:27:38;;;;;;;15.73;12.35;;;;;;;19.24;76.12;100943.38;690097;28;22428;-67
2021/09/11 01:28:00;;;;;;;16.25;12.77;;;;;;;19.21;75.95;100943.81;686725;28;44259;-68
2021/09/11 01:28:22;;;;;;;14.65;13.15;;;;;;;19.23;76.05;100945.28;688381;28;23877;-68
2021/09/11 01:28:44;;;;;;;14.13;12.35;;;;;;;19.24;75.98;100949.66;687697;28;46337;-68
2021/09/11 01:29:08;;;;;;;13.38;11.98;;;;;;;19.21;76.04;100946.56;687169;28;46804;-66
2021/09/11 01:29:30;;;;;;;15.00;12.50;;;;;;;19.24;76.00;100946.94;684442;28;115589;-70
2021/09/11 01:29:52;;;;;;;14.43;12.43;;;;;;;19.24;75.96;100957.06;687310;28;45438;-67
2021/09/11 01:30:18;;;;;;;14.18;12.65;;;;;;;19.20;76.01;100942.16;688054;28;13591;-67
2021/09/11 01:30:39;;;;;;;14.45;12.95;;;;;;;19.23;75.76;100950.75;687274;28;90512;-68
2021/09/11 01:31:00;;;;;;;16.77;13.55;;;;;;;19.23;75.84;100952.63;688591;28;23388;-69
2021/09/11 01:31:21;;;;;;;17.75;13.23;;;;;;;19.22;76.01;100951.81;688915;28;44762;-67
2021/09/11 01:31:43;;;;;;;17.50;12.90;;;;;;;19.20;75.88;100944.88;690679;28;23525;-69
2021/09/11 01:32:13;;;;;;;14.98;12.45;;;;;;;19.21;75.85;100949.31;688796;28;46498;-69
2021/09/11 01:32:35;;;;;;;15.27;12.07;;;;;;;19.22;76.05;100948.25;686818;28;138148;-68
2021/09/11 01:32:57;;;;;;;16.25;11.98;;;;;;;19.21;75.88;100950.13;690544;28;22407;-68
2021/09/11 01:33:18;;;;;;;17.25;12.23;;;;;;;19.20;75.93;100948.47;686044;28;69379;-68
2021/09/11 01:33:39;;;;;;;15.30;12.45;;;;;;;19.20;75.81;100950.34;688828;28;22391;-70
2021/09/11 01:34:00;;;;;;;15.88;12.20;;;;;;;19.19;75.78;100948.72;688725;28;21549;-68
2021/09/11 01:34:22;;;;;;;15.02;12.40;;;;;;;19.19;75.73;100949.53;688277;28;23470;-69
2021/09/11 01:34:43;;;;;;;15.55;12.70;;;;;;;19.19;75.82;100949.53;686958;28;46065;-68
2021/09/11 01:35:06;;;;;;;14.90;12.15;;;;;;;19.17;75.76;100945.34;688415;28;22241;-68
2021/09/11 01:35:27;;;;;;;14.35;12.20;;;;;;;19.18;75.84;100949.75;687603;28;47137;-68
2021/09/11 01:35:49;;;;;;;15.30;12.90;;;;;;;19.19;76.16;100948.72;688319;28;23429;-69
2021/09/11 01:36:10;;;;;;;14.27;12.45;;;;;;;19.20;75.94;100950.34;689042;28;939;-69
2021/09/11 01:36:31;;;;;;;15.10;12.50;;;;;;;19.18;76.15;100949.75;687068;28;46421;-68
2021/09/11 01:36:52;;;;;;;16.92;12.82;;;;;;;19.18;76.02;100947.03;688613;28;21525;-68
2021/09/11 01:37:14;;;;;;;15.85;12.70;;;;;;;19.18;75.91;100950.59;688260;28;22401;-68
2021/09/11 01:37:36;;;;;;;16.63;12.93;;;;;;;19.18;75.91;100952.50;688205;28;21528;-69
2021/09/11 01:37:57;;;;;;;16.35;12.65;;;;;;;19.12;75.88;100951.50;686500;28;69923;-68
2021/09/11 01:38:18;;;;;;;14.82;11.98;;;;;;;19.16;75.92;100954.63;687465;28;44393;-68
2021/09/11 01:38:39;;;;;;;14.75;12.27;;;;;;;19.15;75.73;100953.78;688361;28;22530;-68
2021/09/11 01:39:03;;;;;;;15.85;12.52;;;;;;;19.14;75.68;100951.28;688326;28;21325;-69
2021/09/11 01:39:24;;;;;;;16.27;12.68;;;;;;;19.14;75.81;100951.28;686965;28;69297;-68
2021/09/11 01:39:47;;;;;;;15.90;12.68;;;;;;;19.12;75.93;100953.41;688280;28;22467;-67